createdAt,value
2022-12-04T00:00:10.665Z,101994.95
2022-12-04T00:01:16.735Z,101991.55
2022-12-04T00:02:18.774Z,101997.44
2022-12-04T00:03:20.998Z,101999.54
2022-12-04T00:04:23.162Z,102000.84
2022-12-04T00:05:25.544Z,101995.75
2022-12-04T00:06:28.239Z,102000.56
2022-12-04T00:07:30.620Z,102006.61
2022-12-04T00:08:32.871Z,101991.10
2022-12-04T00:09:34.836Z,101993.14
2022-12-04T00:10:42.601Z,102008.70
2022-12-04T00:11:45.027Z,102007.61
2022-12-04T00:12:46.763Z,101998.09
2022-12-04T00:13:49.099Z,102003.48
2022-12-04T00:15:24.008Z,102001.50
2022-12-04T00:15:56.068Z,102000.87
2022-12-04T00:16:58.167Z,101999.91
2022-12-04T00:17:59.921Z,101999.98
2022-12-04T00:19:02.348Z,101996.58
2022-12-04T00:20:06.409Z,101992.34
2022-12-04T00:21:11.562Z,102003.31
2022-12-04T00:22:13.302Z,101998.95
2022-12-04T00:23:14.910Z,101997.30
2022-12-04T00:24:17.706Z,101996.58
2022-12-04T00:25:19.507Z,101993.00
2022-12-04T00:26:24.333Z,102004.34
2022-12-04T00:27:26.230Z,102006.81
2022-12-04T00:28:28.354Z,102016.84
2022-12-04T00:29:30.134Z,102003.61
2022-12-04T00:30:32.712Z,102008.86
2022-12-04T00:31:34.666Z,102001.06
2022-12-04T00:32:36.640Z,102008.86
2022-12-04T00:33:39.953Z,102004.34
2022-12-04T00:34:42.020Z,102004.34
2022-12-04T00:35:43.735Z,102008.48
2022-12-04T00:36:46.474Z,102013.80
2022-12-04T00:37:49.437Z,102011.03
2022-12-04T00:38:51.685Z,101995.75
2022-12-04T00:39:54.058Z,102003.04
2022-12-04T00:40:57.227Z,102004.79
2022-12-04T00:41:59.007Z,102000.87
2022-12-04T00:43:00.937Z,102007.55
2022-12-04T00:44:03.307Z,102013.95
2022-12-04T00:45:06.317Z,102009.95
2022-12-04T00:46:08.717Z,102009.72
2022-12-04T00:47:10.695Z,102015.77
2022-12-04T00:48:12.437Z,102009.31
2022-12-04T00:49:14.142Z,102018.88
2022-12-04T00:50:16.411Z,102012.64
2022-12-04T00:51:21.625Z,102019.48
2022-12-04T00:52:23.714Z,102020.34
2022-12-04T00:53:25.502Z,102020.84
2022-12-04T00:54:27.443Z,102014.09
2022-12-04T00:55:29.309Z,102015.81
2022-12-04T00:56:31.179Z,102017.44
2022-12-04T00:57:33.216Z,102010.82
2022-12-04T00:58:35.368Z,102016.20
2022-12-04T00:59:37.582Z,102019.38
2022-12-04T01:00:41.860Z,102008.70
2022-12-04T01:01:43.841Z,102018.59
2022-12-04T01:02:45.984Z,102016.55
2022-12-04T01:03:50.209Z,102019.25
2022-12-04T01:04:52.111Z,102019.09
2022-12-04T01:05:53.984Z,102015.81
2022-12-04T01:06:59.044Z,102016.55
2022-12-04T01:07:59.953Z,102023.38
2022-12-04T01:09:04.679Z,102026.72
2022-12-04T01:10:10.215Z,102031.25
2022-12-04T01:11:13.111Z,102027.75
2022-12-04T01:12:20.580Z,102022.75
2022-12-04T01:13:20.460Z,102028.70
2022-12-04T01:14:22.350Z,102023.84
2022-12-04T01:15:24.069Z,102022.55
2022-12-04T01:16:29.631Z,102016.27
2022-12-04T01:17:32.059Z,102016.27
2022-12-04T01:18:33.866Z,102015.19
2022-12-04T01:19:36.615Z,102016.55
2022-12-04T01:20:39.378Z,102023.38
2022-12-04T01:21:41.063Z,102012.93
2022-12-04T01:22:43.064Z,102017.16
2022-12-04T01:23:45.115Z,102013.66
2022-12-04T01:24:47.103Z,102012.20
2022-12-04T01:25:54.467Z,102019.50
2022-12-04T01:26:56.294Z,102017.58
2022-12-04T01:27:58.232Z,102017.52
2022-12-04T01:29:00.160Z,102012.66
2022-12-04T01:30:03.015Z,102004.56
2022-12-04T01:31:08.535Z,102013.72
2022-12-04T01:32:10.412Z,102019.31
2022-12-04T01:33:12.478Z,102007.81
2022-12-04T01:34:14.688Z,102018.45
2022-12-04T01:35:17.337Z,102009.42
2022-12-04T01:36:23.099Z,102014.00
2022-12-04T01:37:24.836Z,102015.91
2022-12-04T01:38:27.976Z,102016.25
2022-12-04T01:39:30.478Z,102021.88
2022-12-04T01:40:32.319Z,102011.23
2022-12-04T01:41:34.026Z,102013.91
2022-12-04T01:42:35.892Z,102018.86
2022-12-04T01:43:39.312Z,102016.25
2022-12-04T01:44:44.375Z,102016.25
2022-12-04T01:45:55.284Z,102018.59
2022-12-04T01:47:00.107Z,102018.33
2022-12-04T01:48:08.730Z,102025.72
2022-12-04T01:49:14.362Z,102007.60
2022-12-04T01:50:16.515Z,102018.75
2022-12-04T01:51:22.056Z,102022.77
2022-12-04T01:52:27.020Z,102014.88
2022-12-04T01:53:30.675Z,102018.05
2022-12-04T01:54:36.484Z,102018.31
2022-12-04T01:55:38.848Z,102020.47
2022-12-04T01:56:50.076Z,102011.37
2022-12-04T01:57:52.016Z,102019.87
2022-12-04T01:58:57.016Z,102011.01
2022-12-04T02:00:02.523Z,102011.01
2022-12-04T02:01:09.019Z,102021.69
2022-12-04T02:02:18.359Z,102026.86
2022-12-04T02:03:20.934Z,102018.57
2022-12-04T02:04:23.330Z,102024.52
2022-12-04T02:05:25.326Z,102020.50
2022-12-04T02:06:27.321Z,102014.64
2022-12-04T02:07:30.440Z,102026.73
2022-12-04T02:08:34.625Z,102020.05
2022-12-04T02:09:37.960Z,102015.22
2022-12-04T02:10:59.471Z,102027.33
2022-12-04T02:12:19.945Z,102017.65
2022-12-04T02:13:34.483Z,102022.11
2022-12-04T02:14:42.619Z,102020.20
2022-12-04T02:16:06.402Z,102019.06
2022-12-04T02:17:23.467Z,102014.73
2022-12-04T02:18:48.474Z,102016.66
2022-12-04T02:20:10.869Z,102011.64
2022-12-04T02:21:19.369Z,102014.97
2022-12-04T04:34:27.153Z,102071.10
2022-12-04T04:35:38.650Z,102073.16
2022-12-04T04:37:01.062Z,102060.92
2022-12-04T04:38:26.794Z,102064.50
2022-12-04T04:39:41.811Z,102060.00
2022-12-04T04:40:50.641Z,102068.92
2022-12-04T04:41:59.264Z,102066.52
2022-12-04T04:43:16.889Z,102069.06
2022-12-04T04:44:22.555Z,102067.74
2022-12-04T04:45:31.368Z,102071.86
2022-12-04T04:46:37.034Z,102067.81
2022-12-04T04:48:07.065Z,102066.39
2022-12-04T04:49:12.118Z,102059.26
2022-12-04T04:50:16.758Z,102062.88
2022-12-04T04:51:19.834Z,102054.79
2022-12-04T04:52:23.614Z,102060.84
2022-12-04T04:53:32.253Z,102050.52
2022-12-04T04:54:36.099Z,102060.19
2022-12-04T04:55:39.033Z,102064.02
2022-12-04T04:56:44.473Z,102068.95
2022-12-04T04:57:46.422Z,102048.44
2022-12-04T04:58:48.368Z,102064.98
2022-12-04T04:59:50.251Z,102056.23
2022-12-04T05:01:10.680Z,102058.30
2022-12-04T05:02:12.560Z,102062.03
2022-12-04T05:03:14.389Z,102055.68
2022-12-04T05:04:16.048Z,102058.46
2022-12-04T05:05:17.805Z,102063.69
2022-12-04T05:06:19.968Z,102059.33
2022-12-04T05:07:21.691Z,102063.69
2022-12-04T05:08:23.933Z,102061.14
2022-12-04T05:09:25.627Z,102058.84
2022-12-04T05:10:28.739Z,102073.14
2022-12-04T05:11:30.922Z,102073.41
2022-12-04T05:12:33.109Z,102071.17
2022-12-04T05:13:35.034Z,102074.36
2022-12-04T05:14:36.787Z,102072.78
2022-12-04T05:15:39.233Z,102074.20
2022-12-04T05:16:41.260Z,102075.47
2022-12-04T05:17:43.127Z,102065.92
2022-12-04T05:18:44.973Z,102082.21
2022-12-04T05:19:47.092Z,102076.58
2022-12-04T05:20:49.093Z,102067.67
2022-12-04T05:21:50.706Z,102066.16
2022-12-04T05:22:52.925Z,102066.36
2022-12-04T05:23:54.711Z,102066.70
2022-12-04T05:24:56.860Z,102068.10
2022-12-04T05:26:01.678Z,102068.56
2022-12-04T05:27:04.140Z,102065.13
2022-12-04T05:28:07.884Z,102063.80
2022-12-04T05:29:09.694Z,102058.12
2022-12-04T05:30:12.334Z,102058.12
2022-12-04T05:31:14.150Z,102064.58
2022-12-04T05:32:16.251Z,102067.19
2022-12-04T05:33:18.080Z,102069.91
2022-12-04T05:34:19.822Z,102070.08
2022-12-04T05:35:22.537Z,102073.07
2022-12-04T05:36:24.451Z,102067.84
2022-12-04T05:37:26.372Z,102074.17
2022-12-04T05:38:28.985Z,102071.42
2022-12-04T05:39:30.891Z,102067.27
2022-12-04T05:40:32.896Z,102078.33
2022-12-04T05:41:34.522Z,102077.36
2022-12-04T05:42:36.560Z,102073.66
2022-12-04T05:43:38.272Z,102073.16
2022-12-04T05:44:40.505Z,102078.56
2022-12-04T05:45:42.750Z,102073.23
2022-12-04T05:46:44.679Z,102087.87
2022-12-04T05:47:47.336Z,102085.81
2022-12-04T05:48:49.238Z,102086.42
2022-12-04T05:49:52.508Z,102086.42
2022-12-04T05:50:54.624Z,102075.64
2022-12-04T05:51:59.050Z,102066.70
2022-12-04T05:53:03.036Z,102066.70
2022-12-04T05:54:05.885Z,102091.73
2022-12-04T05:55:08.173Z,102090.69
2022-12-04T05:56:11.192Z,102085.61
2022-12-04T05:57:13.520Z,102084.49
2022-12-04T05:58:15.179Z,102088.29
2022-12-04T05:59:17.636Z,102088.29
2022-12-04T06:00:19.959Z,102092.33
2022-12-04T06:01:23.367Z,102091.15
2022-12-04T06:02:25.714Z,102084.49
2022-12-04T06:03:27.778Z,102084.49
2022-12-04T06:04:30.289Z,102091.66
2022-12-04T06:05:32.279Z,102086.89
2022-12-04T06:06:34.327Z,102079.27
2022-12-04T06:07:36.046Z,102089.33
2022-12-04T06:08:38.010Z,102089.39
2022-12-04T06:09:41.934Z,102093.28
2022-12-04T06:10:44.274Z,102088.55
2022-12-04T06:11:46.171Z,102086.47
2022-12-04T06:12:48.062Z,102085.94
2022-12-04T06:13:50.949Z,102080.48
2022-12-04T06:14:53.627Z,102088.28
2022-12-04T06:15:55.358Z,102088.61
2022-12-04T06:16:57.404Z,102081.48
2022-12-04T06:17:59.237Z,102083.06
2022-12-04T06:19:07.101Z,102084.49
2022-12-04T06:20:12.139Z,102084.49
2022-12-04T06:21:14.632Z,102090.97
2022-12-04T06:22:17.008Z,102096.09
2022-12-04T06:23:18.786Z,102092.39
2022-12-04T06:24:23.116Z,102100.09
2022-12-04T06:25:24.956Z,102095.44
2022-12-04T06:26:27.409Z,102098.13
2022-12-04T06:27:29.498Z,102097.52
2022-12-04T06:28:31.803Z,102100.85
2022-12-04T06:29:33.710Z,102108.48
2022-12-04T06:30:36.537Z,102091.15
2022-12-04T06:31:39.574Z,102084.16
2022-12-04T06:32:41.681Z,102084.16
2022-12-04T06:33:43.828Z,102107.94
2022-12-04T06:34:45.665Z,102101.36
2022-12-04T06:35:47.489Z,102103.40
2022-12-04T06:36:49.335Z,102111.99
2022-12-04T06:37:51.196Z,102106.66
2022-12-04T06:38:55.544Z,102108.63
2022-12-04T06:39:57.589Z,102113.09
2022-12-04T06:41:09.136Z,102113.70
2022-12-04T06:42:10.897Z,102105.95
2022-12-04T06:43:12.509Z,102121.77
2022-12-04T06:44:16.458Z,102113.38
2022-12-04T06:45:18.791Z,102107.69
2022-12-04T06:46:24.015Z,102115.13
2022-12-04T06:47:25.856Z,102124.33
2022-12-04T06:48:28.508Z,102123.84
2022-12-04T06:49:30.401Z,102119.88
2022-12-04T06:50:32.276Z,102116.75
2022-12-04T06:51:36.369Z,102116.22
2022-12-04T06:52:38.337Z,102125.14
2022-12-04T06:53:40.574Z,102117.92
2022-12-04T06:54:42.860Z,102126.41
2022-12-04T06:55:49.107Z,102121.79
2022-12-04T06:56:51.046Z,102122.15
2022-12-04T06:57:53.173Z,102126.28
2022-12-04T06:58:58.808Z,102118.97
2022-12-04T07:00:01.067Z,102119.94
2022-12-04T07:01:08.887Z,102129.46
2022-12-04T07:02:10.862Z,102133.22
2022-12-04T07:03:13.741Z,102127.25
2022-12-04T07:04:16.151Z,102121.51
2022-12-04T07:05:17.848Z,102125.80
2022-12-04T07:06:22.781Z,102127.70
2022-12-04T07:07:24.739Z,102129.92
2022-12-04T07:08:26.955Z,102122.48
2022-12-04T07:09:29.344Z,102124.87
2022-12-04T07:10:31.505Z,102129.86
2022-12-04T07:11:33.971Z,102124.17
2022-12-04T07:12:35.841Z,102132.37
2022-12-04T07:13:38.080Z,102133.65
2022-12-04T07:14:41.136Z,102122.05
2022-12-04T07:15:44.037Z,102120.11
2022-12-04T07:16:46.531Z,102116.48
2022-12-04T07:17:48.695Z,102116.48
2022-12-04T07:18:50.937Z,102125.22
2022-12-04T07:19:55.944Z,102124.09
2022-12-04T07:20:59.132Z,102123.80
2022-12-04T07:22:01.034Z,102124.73
2022-12-04T07:23:07.207Z,102127.59
2022-12-04T07:24:07.812Z,102134.13
2022-12-04T07:25:11.715Z,102125.34
2022-12-04T07:26:15.449Z,102129.46
2022-12-04T07:27:17.855Z,102131.22
2022-12-04T07:28:19.634Z,102132.66
2022-12-04T07:29:21.563Z,102134.87
2022-12-04T07:30:25.264Z,102136.95
2022-12-04T07:31:28.992Z,102132.19
2022-12-04T07:32:32.347Z,102127.89
2022-12-04T07:33:35.944Z,102128.86
2022-12-04T07:34:37.655Z,102133.94
2022-12-04T07:35:39.928Z,102133.48
2022-12-04T07:36:42.711Z,102129.50
2022-12-04T07:37:44.515Z,102133.94
2022-12-04T07:38:47.093Z,102135.20
2022-12-04T07:39:51.987Z,102132.05
2022-12-04T07:40:59.169Z,102125.99
2022-12-04T07:42:01.121Z,102139.03
2022-12-04T07:43:04.251Z,102135.52
2022-12-04T07:44:05.984Z,102135.52
2022-12-04T07:45:08.889Z,102129.03
2022-12-04T07:46:17.296Z,102126.16
2022-12-04T07:47:20.049Z,102125.67
2022-12-04T07:48:22.843Z,102128.86
2022-12-04T07:49:24.614Z,102131.40
2022-12-04T07:50:27.498Z,102125.02
2022-12-04T07:51:29.648Z,102127.25
2022-12-04T07:52:36.705Z,102130.89
2022-12-04T07:53:39.645Z,102120.72
2022-12-04T07:54:41.550Z,102125.34
2022-12-04T07:55:43.243Z,102128.53
2022-12-04T07:56:45.144Z,102128.31
2022-12-04T07:57:46.815Z,102136.34
2022-12-04T07:58:48.642Z,102132.14
2022-12-04T07:59:50.348Z,102135.47
2022-12-04T08:00:52.218Z,102125.59
2022-12-04T08:01:53.976Z,102131.33
2022-12-04T08:02:56.057Z,102122.59
2022-12-04T08:03:59.443Z,102132.91
2022-12-04T08:05:01.487Z,102134.73
2022-12-04T08:06:05.839Z,102133.30
2022-12-04T08:07:07.795Z,102140.14
2022-12-04T08:08:09.555Z,102131.33
2022-12-04T08:09:12.341Z,102132.69
2022-12-04T08:10:15.208Z,102134.41
2022-12-04T08:11:20.303Z,102130.11
2022-12-04T08:12:22.044Z,102136.30
2022-12-04T08:13:24.077Z,102129.64
2022-12-04T08:14:25.926Z,102132.33
2022-12-04T08:15:28.741Z,102138.37
2022-12-04T08:16:32.370Z,102138.37
2022-12-04T08:17:34.284Z,102132.19
2022-12-04T08:18:36.879Z,102127.84
2022-12-04T08:19:38.875Z,102135.08
2022-12-04T08:20:40.844Z,102134.98
2022-12-04T08:21:42.683Z,102119.33
2022-12-04T08:22:45.095Z,102123.70
2022-12-04T08:23:49.347Z,102121.55
2022-12-04T08:24:51.287Z,102125.02
2022-12-04T08:25:53.109Z,102118.86
2022-12-04T08:26:55.359Z,102123.77
2022-12-04T08:27:57.598Z,102123.84
2022-12-04T08:29:00.621Z,102113.92
2022-12-04T08:30:03.196Z,102119.08
2022-12-04T08:31:08.281Z,102115.60
2022-12-04T08:32:10.155Z,102121.23
2022-12-04T08:33:11.889Z,102117.25
2022-12-04T08:34:14.840Z,102117.90
2022-12-04T08:35:16.827Z,102125.67
2022-12-04T08:36:21.507Z,102123.69
2022-12-04T08:37:23.365Z,102119.64
2022-12-04T08:38:26.035Z,102121.39
2022-12-04T08:39:27.918Z,102122.36
2022-12-04T08:40:30.313Z,102124.25
2022-12-04T08:41:32.217Z,102123.77
2022-12-04T08:42:33.867Z,102122.74
2022-12-04T08:43:35.863Z,102114.70
2022-12-04T08:44:38.667Z,102124.57
2022-12-04T08:45:41.128Z,102113.91
2022-12-04T08:46:43.379Z,102109.23
2022-12-04T08:47:50.671Z,102106.41
2022-12-04T08:48:49.437Z,102107.37
2022-12-04T08:49:51.061Z,102109.47
2022-12-04T08:50:54.035Z,102111.47
2022-12-04T08:51:55.856Z,102105.56
2022-12-04T08:52:57.813Z,102105.17
2022-12-04T08:54:03.327Z,102108.44
2022-12-04T08:55:06.993Z,102108.44
2022-12-04T08:56:09.934Z,102110.40
2022-12-04T08:57:12.300Z,102115.59
2022-12-04T08:58:15.527Z,102108.99
2022-12-04T08:59:17.395Z,102104.94
2022-12-04T09:00:19.991Z,102095.92
2022-12-04T09:01:22.481Z,102101.42
2022-12-04T09:02:24.485Z,102094.34
2022-12-04T09:03:30.909Z,102088.52
2022-12-04T09:04:30.077Z,102090.45
2022-12-04T09:05:32.640Z,102093.31
2022-12-04T09:06:34.885Z,102094.20
2022-12-04T09:07:36.663Z,102088.29
2022-12-04T09:08:39.613Z,102089.55
2022-12-04T09:09:55.448Z,102090.05
2022-12-04T09:10:45.930Z,102099.54
2022-12-04T09:11:48.467Z,102097.55
2022-12-04T09:12:50.239Z,102102.88
2022-12-04T09:13:53.096Z,102094.76
2022-12-04T09:14:56.086Z,102086.72
2022-12-04T09:15:58.069Z,102095.48
2022-12-04T09:17:00.030Z,102088.09
2022-12-04T09:18:01.757Z,102090.22
2022-12-04T09:19:03.597Z,102098.51
2022-12-04T09:20:08.019Z,102090.56
2022-12-04T09:21:13.443Z,102087.75
2022-12-04T09:22:15.760Z,102085.61
2022-12-04T09:23:18.546Z,102096.89
2022-12-04T09:24:20.356Z,102080.77
2022-12-04T09:25:22.221Z,102090.16
2022-12-04T09:26:27.009Z,102089.36
2022-12-04T09:27:29.848Z,102084.58
2022-12-04T09:28:32.736Z,102082.45
2022-12-04T09:29:34.487Z,102092.45
2022-12-04T09:30:36.453Z,102091.50
2022-12-04T09:31:38.796Z,102085.06
2022-12-04T09:32:40.648Z,102085.13
2022-12-04T09:33:42.660Z,102087.84
2022-12-04T09:34:51.194Z,102080.22
2022-12-04T09:35:52.527Z,102081.97
2022-12-04T09:36:54.859Z,102086.09
2022-12-04T09:37:57.663Z,102083.38
2022-12-04T09:38:59.645Z,102087.27
2022-12-04T09:40:02.881Z,102080.35
2022-12-04T09:41:28.371Z,102080.35
2022-12-04T09:42:49.159Z,102081.37
2022-12-04T09:44:12.256Z,102077.19
2022-12-04T09:45:23.685Z,102084.52
2022-12-04T09:46:36.804Z,102073.20
2022-12-04T09:47:43.063Z,102078.59
2022-12-04T09:48:48.178Z,102073.61
2022-12-04T09:50:02.941Z,102084.02
2022-12-04T09:51:08.561Z,102081.92
2022-12-04T09:52:21.677Z,102077.30
2022-12-04T09:53:25.723Z,102082.45
2022-12-04T09:54:31.181Z,102086.98
2022-12-04T09:55:43.407Z,102085.06
2022-12-04T09:56:48.986Z,102077.83
2022-12-04T09:58:01.351Z,102082.32
2022-12-04T09:59:18.690Z,102074.05
2022-12-04T10:00:21.056Z,102070.70
2022-12-04T10:01:29.693Z,102075.30
2022-12-04T10:02:35.319Z,102073.05
2022-12-04T10:03:37.586Z,102078.04
2022-12-04T10:04:40.297Z,102083.07
2022-12-04T10:05:58.094Z,102071.42
2022-12-04T10:07:12.896Z,102073.84
2022-12-04T10:08:37.282Z,102072.25
2022-12-04T10:09:43.855Z,102074.80
2022-12-04T10:10:53.378Z,102070.91
2022-12-04T10:12:15.883Z,102070.28
2022-12-04T10:13:27.361Z,102061.39
2022-12-04T10:14:51.211Z,102069.09
2022-12-04T10:16:13.688Z,102063.72
2022-12-04T10:17:53.247Z,102073.39
2022-12-04T10:19:08.286Z,102057.75
2022-12-04T10:20:23.757Z,102056.86
2022-12-04T10:21:41.058Z,102054.77
2022-12-04T10:22:49.750Z,102053.68
2022-12-04T10:24:19.936Z,102054.20
2022-12-04T10:25:24.514Z,102053.47
2022-12-04T10:26:30.436Z,102043.05
2022-12-04T10:27:35.988Z,102052.67
2022-12-04T10:28:41.499Z,102040.28
2022-12-04T10:29:47.244Z,102048.27
2022-12-04T10:30:55.804Z,102046.96
2022-12-04T10:32:16.864Z,102039.20
2022-12-04T10:33:33.478Z,102040.05
2022-12-04T10:34:42.506Z,102032.11
2022-12-04T10:35:45.531Z,102037.33
2022-12-04T10:36:51.626Z,102028.15
2022-12-04T10:37:57.217Z,102032.54
2022-12-04T10:39:11.933Z,102032.23
2022-12-04T10:40:23.668Z,102028.15
2022-12-04T10:41:39.049Z,102027.84
2022-12-04T10:42:47.630Z,102025.66
2022-12-04T10:43:50.072Z,102022.63
2022-12-04T10:44:53.036Z,102032.11
2022-12-04T10:45:55.097Z,102033.58
2022-12-04T10:47:02.437Z,102024.83
2022-12-04T10:48:05.890Z,102026.17
2022-12-04T10:49:18.534Z,102027.89
2022-12-04T10:50:23.955Z,102020.34
2022-12-04T10:51:26.486Z,102017.34
2022-12-04T10:52:29.051Z,102030.23
2022-12-04T10:53:34.339Z,102015.07
2022-12-04T10:54:39.999Z,102013.32
2022-12-04T10:55:42.371Z,102012.81
2022-12-04T10:57:00.399Z,102013.34
2022-12-04T10:58:02.741Z,102000.48
2022-12-04T10:59:05.305Z,102001.81
2022-12-04T11:00:26.651Z,102009.94
2022-12-04T11:01:31.669Z,102004.75
2022-12-04T11:02:35.078Z,102003.52
2022-12-04T11:03:38.777Z,101991.59
2022-12-04T11:04:41.655Z,101995.09
2022-12-04T11:05:47.331Z,101997.38
2022-12-04T11:06:50.080Z,101988.93
2022-12-04T11:07:52.964Z,101992.54
2022-12-04T11:08:56.012Z,101990.94
2022-12-04T11:10:01.092Z,101996.30
2022-12-04T11:11:06.993Z,101985.95
2022-12-04T11:12:18.085Z,101981.73
2022-12-04T11:13:20.733Z,101979.63
2022-12-04T11:14:22.719Z,101982.23
2022-12-04T11:15:25.016Z,101978.73
2022-12-04T11:16:39.796Z,101979.78
2022-12-04T11:17:41.604Z,101984.23
2022-12-04T11:18:48.941Z,101975.88
2022-12-04T11:19:59.339Z,101981.38
2022-12-04T11:21:04.865Z,101987.59
2022-12-04T11:22:16.543Z,101965.42
2022-12-04T11:23:19.282Z,101982.30
2022-12-04T11:24:27.613Z,101981.44
2022-12-04T11:25:38.933Z,101981.08
2022-12-04T11:26:42.212Z,101973.34
2022-12-04T11:27:47.744Z,101974.78
2022-12-04T11:28:53.480Z,101975.64
2022-12-04T11:29:56.257Z,101988.34
2022-12-04T11:31:02.596Z,101985.94
2022-12-04T11:32:08.025Z,101979.99
2022-12-04T11:33:19.873Z,101974.53
2022-12-04T11:34:28.423Z,101974.78
2022-12-04T11:35:32.248Z,101978.14
2022-12-04T11:36:37.493Z,101976.94
2022-12-04T11:37:45.220Z,101974.19
2022-12-04T11:38:44.423Z,101975.28
2022-12-04T11:39:48.458Z,101976.74
2022-12-04T11:40:55.654Z,101971.58
2022-12-04T11:42:07.087Z,101971.53
2022-12-04T11:43:14.448Z,101980.04
2022-12-04T11:44:25.661Z,101971.73
2022-12-04T11:45:29.259Z,101967.92
2022-12-04T11:46:33.232Z,101968.89
2022-12-04T11:47:35.324Z,101976.59
2022-12-04T11:48:45.219Z,101983.44
2022-12-04T11:50:07.267Z,101975.11
2022-12-04T11:51:22.478Z,101970.42
2022-12-04T11:52:40.751Z,101971.09
2022-12-04T11:54:01.279Z,101971.62
2022-12-04T11:55:22.462Z,101970.13
2022-12-04T11:56:33.800Z,101964.97
2022-12-04T11:58:13.076Z,101964.77
2022-12-04T11:59:27.848Z,101968.27
2022-12-04T12:00:33.648Z,101962.02
2022-12-04T12:01:51.005Z,101974.56
2022-12-04T12:03:21.999Z,101960.75
2022-12-04T12:04:27.643Z,101966.00
2022-12-04T12:06:08.279Z,101962.50
2022-12-04T12:07:33.631Z,101962.77
2022-12-04T12:08:45.468Z,101968.27
2022-12-04T12:09:57.468Z,101963.42
2022-12-04T12:11:03.558Z,101966.38
2022-12-04T12:12:11.968Z,101962.77
2022-12-04T12:13:32.710Z,101961.27
2022-12-04T12:14:41.488Z,101955.77
2022-12-04T12:16:01.842Z,101967.63
2022-12-04T12:17:10.169Z,101970.39
2022-12-04T12:18:31.936Z,101967.03
2022-12-04T12:19:49.642Z,101963.48
2022-12-04T12:21:13.967Z,101971.82
2022-12-04T12:22:40.709Z,101972.48
2022-12-04T12:25:51.692Z,101966.88
2022-12-04T12:26:59.516Z,101972.39
2022-12-04T12:28:13.921Z,101968.52
2022-12-04T12:29:25.584Z,101968.64
2022-12-04T12:30:32.381Z,101972.13
2022-12-04T12:32:04.887Z,101968.92
2022-12-04T12:33:22.997Z,101978.74
2022-12-04T12:34:42.312Z,101969.34
2022-12-04T12:35:47.819Z,101977.28
2022-12-04T12:36:56.421Z,101961.22
2022-12-04T12:37:59.472Z,101974.42
2022-12-04T12:39:05.131Z,101964.56
2022-12-04T12:40:38.867Z,101967.73
2022-12-04T12:41:47.405Z,101968.16
2022-12-04T12:44:08.701Z,101957.38
2022-12-04T12:45:45.077Z,101964.19
2022-12-04T12:46:50.768Z,101965.57
2022-12-04T12:47:57.003Z,101963.46
2022-12-04T12:49:14.534Z,101963.95
2022-12-04T12:50:25.243Z,101966.31
2022-12-04T12:51:31.366Z,101962.43
2022-12-04T12:52:42.964Z,101961.67
2022-12-04T12:53:48.487Z,101953.54
2022-12-04T12:54:56.950Z,101956.55
2022-12-04T12:56:02.560Z,101953.19
2022-12-04T12:57:30.075Z,101958.53
2022-12-04T12:58:38.421Z,101957.84
2022-12-04T12:59:44.233Z,101953.77
2022-12-04T13:01:09.563Z,101966.31
2022-12-04T13:02:18.254Z,101960.27
2022-12-04T13:03:45.290Z,101962.09
2022-12-04T13:04:50.192Z,101950.17
2022-12-04T13:05:55.807Z,101955.64
2022-12-04T13:07:16.452Z,101965.79
2022-12-04T13:08:30.666Z,101963.41
2022-12-04T13:09:35.881Z,101965.11
2022-12-04T13:10:42.842Z,101974.62
2022-12-04T13:11:48.054Z,101967.77
2022-12-04T13:13:00.052Z,101965.37
2022-12-04T13:14:03.288Z,101968.47
2022-12-04T13:15:06.012Z,101968.62
2022-12-04T13:16:12.183Z,101971.89
2022-12-04T13:17:23.647Z,101974.39
2022-12-04T13:18:29.530Z,101964.93
2022-12-04T13:19:47.344Z,101970.74
2022-12-04T13:20:53.510Z,101974.68
2022-12-04T13:22:33.988Z,101972.59
2022-12-04T13:24:01.233Z,101969.31
2022-12-04T13:25:12.483Z,101968.31
2022-12-04T13:26:18.521Z,101974.28
2022-12-04T13:27:48.215Z,101978.55
2022-12-04T13:30:44.617Z,101987.03
2022-12-04T13:31:50.396Z,101985.58
2022-12-04T13:33:15.063Z,101981.88
2022-12-04T13:34:40.265Z,101979.28
2022-12-04T13:35:48.393Z,101969.69
2022-12-04T13:36:56.848Z,101977.53
2022-12-04T13:38:05.656Z,101974.94
2022-12-04T13:39:29.555Z,101972.03
2022-12-04T13:40:42.348Z,101980.36
2022-12-04T13:41:44.736Z,101974.19
2022-12-04T13:42:46.579Z,101976.47
2022-12-04T13:43:50.814Z,101967.20
2022-12-04T13:45:00.149Z,101968.14
2022-12-04T13:46:05.789Z,101972.38
2022-12-04T13:47:11.484Z,101975.80
2022-12-04T13:48:13.692Z,101974.57
2022-12-04T13:49:19.128Z,101986.03
2022-12-04T13:50:30.265Z,101974.98
2022-12-04T13:51:40.784Z,101980.88
2022-12-04T13:52:42.690Z,101980.88
2022-12-04T13:53:44.509Z,101991.70
2022-12-04T13:54:58.348Z,101987.50
2022-12-04T13:56:06.045Z,101986.70
2022-12-04T13:57:20.569Z,101989.77
2022-12-04T13:58:29.033Z,101992.17
2022-12-04T13:59:37.942Z,101987.13
2022-12-04T14:00:42.731Z,101980.33
2022-12-04T14:01:47.812Z,101988.88
2022-12-04T14:02:53.231Z,101979.31
2022-12-04T14:03:55.635Z,101990.52
2022-12-04T14:05:03.925Z,101998.00
2022-12-04T14:06:10.396Z,101983.23
2022-12-04T14:08:42.827Z,101981.64
2022-12-04T14:09:48.392Z,101980.28
2022-12-04T14:11:15.333Z,101971.92
2022-12-04T14:12:17.770Z,101978.88
2022-12-04T14:13:23.316Z,101977.13
2022-12-04T14:14:28.815Z,101985.73
2022-12-04T14:15:35.501Z,101982.33
2022-12-04T14:16:42.443Z,101981.59
2022-12-04T14:17:48.144Z,101979.91
2022-12-04T14:18:53.722Z,101974.08
2022-12-04T14:20:02.914Z,101974.88
2022-12-04T14:21:06.376Z,101984.14
2022-12-04T14:22:30.079Z,101979.77
2022-12-04T14:23:38.057Z,101979.84
2022-12-04T14:24:39.900Z,101980.48
2022-12-04T14:25:42.124Z,101974.37
2022-12-04T14:27:55.602Z,101972.42
2022-12-04T14:29:15.933Z,101978.44
2022-12-04T14:30:28.348Z,101976.72
2022-12-04T14:31:34.188Z,101971.70
2022-12-04T14:32:38.083Z,101974.97
2022-12-04T14:33:58.217Z,101974.08
2022-12-04T14:35:02.152Z,101970.80
2022-12-04T14:36:20.125Z,101974.69
2022-12-04T14:37:26.756Z,101974.39
2022-12-04T14:38:29.085Z,101977.00
2022-12-04T14:39:34.617Z,101977.00
2022-12-04T14:40:41.323Z,101981.94
2022-12-04T14:41:44.457Z,101974.23
2022-12-04T14:42:49.341Z,101971.75
2022-12-04T14:43:51.456Z,101975.09
2022-12-04T14:45:01.275Z,101980.41
2022-12-04T14:46:22.629Z,101975.32
2022-12-04T14:47:41.161Z,101969.44
2022-12-04T14:48:58.605Z,101975.32
2022-12-04T14:50:39.164Z,101975.32
2022-12-04T14:51:47.672Z,101974.39
2022-12-04T14:53:06.143Z,101981.08
2022-12-04T14:54:43.115Z,101982.03
2022-12-04T14:56:14.820Z,101982.95